Time;durP1;ratioP1;P1;durP2;ratioP2;P2;SDS_P1;SDS_P2;PMS_P1;PMS_P2;Temp;Humidity;BMP_temperature;BMP_pressure;BME280_temperature;BME280_humidity;BME280_pressure;Samples;Min_cycle;Max_cycle;Signal;HPM_P1;HPM_P2
2022/06/23 00:02:30;;;;;;;8.73;4.05;;;;;;;15.33;57.57;100739.91;5115369;28;20096;-69
2022/06/23 00:05:04;;;;;;;10.15;3.92;;;;;;;15.36;57.75;100749.47;5116030;28;20048;-69
2022/06/23 00:07:35;;;;;;;12.50;4.25;;;;;;;15.28;58.01;100752.31;5116276;28;20107;-69
2022/06/23 00:10:22;;;;;;;7.85;4.10;;;;;;;15.06;58.37;100752.28;5116469;28;20556;-69
2022/06/23 00:12:49;;;;;;;9.25;4.05;;;;;;;15.01;58.58;100765.50;5116385;28;20071;-68
2022/06/23 00:15:19;;;;;;;6.78;3.58;;;;;;;15.09;58.22;100756.47;5115491;28;20079;-69
2022/06/23 00:18:05;;;;;;;7.55;3.45;;;;;;;15.08;58.25;100750.19;5115630;28;20075;-69
2022/06/23 00:20:41;;;;;;;11.27;3.80;;;;;;;14.95;58.38;100752.75;5115091;28;20063;-69
2022/06/23 00:23:17;;;;;;;10.38;4.20;;;;;;;14.91;58.04;100751.44;5115346;28;20077;-68
2022/06/23 00:26:07;;;;;;;7.57;3.63;;;;;;;15.00;57.67;100755.72;5116086;28;20055;-68
2022/06/23 00:28:41;;;;;;;8.52;3.45;;;;;;;14.98;57.80;100752.38;5116199;28;20104;-69
2022/06/23 00:31:25;;;;;;;11.32;4.30;;;;;;;14.90;58.11;100752.47;5117516;28;20044;-68
2022/06/23 00:33:52;;;;;;;6.80;3.63;;;;;;;14.88;58.08;100755.38;5119505;28;20051;-68
2022/06/23 00:36:46;;;;;;;12.57;3.78;;;;;;;14.86;58.35;100751.19;5118277;28;20390;-68
2022/06/23 00:39:27;;;;;;;9.68;3.80;;;;;;;14.95;58.03;100750.06;5117972;28;20047;-68
2022/06/23 00:41:54;;;;;;;11.30;4.10;;;;;;;14.77;58.37;100756.69;5118069;28;20432;-68
2022/06/23 00:44:35;;;;;;;7.78;4.30;;;;;;;14.84;58.38;100747.81;5117805;28;20047;-68
2022/06/23 00:47:11;;;;;;;7.78;3.80;;;;;;;14.81;58.46;100748.19;5117992;28;20090;-68
2022/06/23 00:49:40;;;;;;;7.05;3.05;;;;;;;14.90;58.17;100752.47;5117759;28;20094;-68
2022/06/23 00:52:37;;;;;;;8.82;4.35;;;;;;;14.71;58.63;100754.72;5117438;28;20139;-68
2022/06/23 00:55:27;;;;;;;9.68;4.10;;;;;;;14.85;58.28;100760.31;5075389;28;20054;-68
2022/06/23 00:58:00;;;;;;;10.85;4.20;;;;;;;14.79;58.21;100753.78;5117120;28;20075;-69
2022/06/23 01:00:36;;;;;;;12.65;3.95;;;;;;;14.84;58.20;100755.91;5117648;28;20127;-68
2022/06/23 01:03:48;;;;;;;9.40;3.63;;;;;;;14.79;58.15;100761.06;5117777;28;20047;-68
2022/06/23 01:10:17;;;;;;;10.27;4.13;;;;;;;14.61;58.59;100762.25;5117786;28;20528;-68
2022/06/23 01:13:10;;;;;;;7.32;3.83;;;;;;;14.70;58.55;100762.97;5117505;28;20470;-68
2022/06/23 01:15:46;;;;;;;8.07;4.00;;;;;;;14.68;58.37;100765.88;5117176;28;20075;-68
2022/06/23 01:18:34;;;;;;;10.80;4.43;;;;;;;14.74;58.13;100770.56;5117433;28;20139;-68
2022/06/23 01:21:06;;;;;;;8.63;3.88;;;;;;;14.75;58.06;100764.13;5117481;28;20079;-68
2022/06/23 01:24:11;;;;;;;11.77;5.20;;;;;;;14.71;58.18;100767.38;5116944;28;20168;-68
2022/06/23 01:26:55;;;;;;;9.40;4.70;;;;;;;14.62;58.26;100761.22;5116836;28;20040;-68
2022/06/23 01:29:50;;;;;;;10.32;3.85;;;;;;;14.68;58.00;100759.63;5117188;28;20539;-68
2022/06/23 01:32:22;;;;;;;12.98;4.20;;;;;;;14.56;58.17;100761.94;5116582;28;20090;-68
2022/06/23 01:34:54;;;;;;;9.45;4.15;;;;;;;14.67;57.89;100756.09;5117199;28;20061;-68
2022/06/23 01:37:27;;;;;;;8.25;3.92;;;;;;;14.68;57.64;100760.47;5116944;28;20484;-68
2022/06/23 01:40:09;;;;;;;9.45;4.20;;;;;;;14.68;57.71;100755.06;5116627;28;20071;-68
2022/06/23 01:42:48;;;;;;;13.95;4.07;;;;;;;14.52;57.86;100755.25;5116396;28;20071;-68
2022/06/23 01:45:25;;;;;;;11.30;3.47;;;;;;;14.63;57.42;100751.25;5116303;28;20396;-68
2022/06/23 01:48:01;;;;;;;8.02;4.28;;;;;;;14.59;57.81;100749.94;5116343;28;20059;-68
2022/06/23 01:50:36;;;;;;;8.75;4.20;;;;;;;14.49;57.85;100756.44;5116869;28;20142;-68
2022/06/23 01:53:16;;;;;;;11.50;4.57;;;;;;;14.58;57.57;100753.69;5116537;28;20415;-68
2022/06/23 01:55:51;;;;;;;7.75;4.50;;;;;;;14.56;57.69;100758.41;5116362;28;20090;-68
2022/06/23 01:58:21;;;;;;;8.93;4.55;;;;;;;14.64;57.37;100764.56;5116536;28;20139;-68
2022/06/23 02:00:53;;;;;;;10.50;4.10;;;;;;;14.64;57.26;100764.56;5116724;28;20109;-68
2022/06/23 02:03:25;;;;;;;9.98;4.25;;;;;;;14.57;57.48;100769.03;5116043;28;20150;-68
2022/06/23 02:06:27;;;;;;;10.40;4.03;;;;;;;14.61;57.29;100770.34;5116603;28;20487;-68
2022/06/23 02:09:17;;;;;;;13.63;4.40;;;;;;;14.56;57.26;100771.91;5098775;28;20062;-68
2022/06/23 02:11:48;;;;;;;9.05;3.50;;;;;;;14.62;57.24;100773.88;5115438;28;20075;-68
2022/06/23 02:14:34;;;;;;;9.00;4.20;;;;;;;14.66;57.01;100780.56;5116005;28;20066;-68
2022/06/23 02:17:30;;;;;;;8.80;4.05;;;;;;;14.62;56.98;100776.56;5115683;28;20076;-68
2022/06/23 02:20:04;;;;;;;9.88;4.20;;;;;;;14.58;57.13;100780.66;5115641;28;20082;-68
2022/06/23 02:22:42;;;;;;;13.05;3.92;;;;;;;14.40;57.23;100787.25;5115882;28;20047;-68
2022/06/23 02:25:27;;;;;;;8.23;3.80;;;;;;;14.52;56.96;100787.63;5115633;28;20090;-68
2022/06/23 02:28:16;;;;;;;8.38;3.97;;;;;;;14.54;56.99;100799.09;5115724;28;20115;-68
2022/06/23 02:30:51;;;;;;;7.03;3.60;;;;;;;14.51;57.00;100788.66;5107259;28;20142;-68
2022/06/23 02:33:24;;;;;;;9.30;3.55;;;;;;;14.44;57.11;100793.13;5115387;28;20476;-67
2022/06/23 02:36:01;;;;;;;9.38;4.00;;;;;;;14.34;57.34;100796.09;5115369;28;20480;-70
2022/06/23 02:38:36;;;;;;;8.13;3.92;;;;;;;14.35;57.32;100788.81;5115266;28;20073;-68
2022/06/23 02:41:02;;;;;;;9.77;3.72;;;;;;;14.32;57.51;100791.88;5116388;28;20138;-69
2022/06/23 02:43:38;;;;;;;9.63;3.75;;;;;;;14.23;57.77;100794.66;5114780;28;20055;-69
2022/06/23 02:46:14;;;;;;;9.50;4.72;;;;;;;14.14;57.83;100803.84;5115399;28;20040;-69
2022/06/23 02:49:11;;;;;;;7.38;3.33;;;;;;;14.19;57.77;100801.47;5115069;28;20108;-69
2022/06/23 02:51:50;;;;;;;7.68;4.28;;;;;;;14.16;57.65;100814.47;5114799;28;20134;-69
2022/06/23 02:54:29;;;;;;;10.80;3.88;;;;;;;14.21;57.55;100820.97;5114570;28;20083;-69
2022/06/23 02:57:05;;;;;;;8.82;3.72;;;;;;;14.18;57.53;100824.03;5114901;28;20130;-69
2022/06/23 03:00:07;;;;;;;7.93;3.72;;;;;;;14.22;57.23;100817.28;5114763;28;20131;-69
2022/06/23 03:02:33;;;;;;;7.50;3.72;;;;;;;14.17;57.13;100808.88;5080693;28;20479;-67
2022/06/23 03:05:11;;;;;;;8.30;3.58;;;;;;;14.20;57.06;100816.63;5117734;28;20498;-66
2022/06/23 03:07:48;;;;;;;9.43;3.85;;;;;;;14.14;57.04;100817.34;5118375;28;20138;-66
2022/06/23 03:10:32;;;;;;;9.23;4.13;;;;;;;14.20;56.99;100816.63;5117658;28;20134;-65
2022/06/23 03:13:09;;;;;;;10.10;4.00;;;;;;;14.18;57.08;100820.50;5117999;28;20463;-65
2022/06/23 03:15:59;;;;;;;9.85;3.72;;;;;;;14.18;57.31;100820.50;5117831;28;20071;-66
2022/06/23 03:18:50;;;;;;;10.60;3.70;;;;;;;14.17;56.88;100821.53;5117666;28;20055;-66
2022/06/23 03:21:45;;;;;;;13.07;4.30;;;;;;;14.23;56.46;100820.81;5110223;28;20411;-66
2022/06/23 03:24:38;;;;;;;8.50;3.70;;;;;;;14.27;56.58;100824.81;5117892;28;20104;-65
2022/06/23 03:27:20;;;;;;;9.50;3.53;;;;;;;14.38;56.28;100820.84;5117825;28;20043;-66
2022/06/23 03:29:56;;;;;;;8.32;3.75;;;;;;;14.30;56.35;100828.00;5117688;28;20094;-65
2022/06/23 03:32:44;;;;;;;12.25;4.05;;;;;;;14.40;56.09;100829.63;5117443;28;20048;-66
2022/06/23 03:35:42;;;;;;;9.48;3.35;;;;;;;14.39;56.05;100838.72;5117866;28;20134;-66
2022/06/23 03:38:19;;;;;;;9.15;3.97;;;;;;;14.41;55.72;100839.38;5102521;28;20097;-66
2022/06/23 03:43:56;;;;;;;7.25;3.55;;;;;;;14.59;55.09;100841.75;5117947;28;20075;-66
2022/06/23 03:46:33;;;;;;;8.75;4.68;;;;;;;14.52;55.19;100842.47;5117846;28;20502;-66
2022/06/23 03:49:10;;;;;;;9.27;3.70;;;;;;;14.61;55.01;100845.94;5117572;28;20078;-67
2022/06/23 03:51:58;;;;;;;10.77;3.80;;;;;;;14.64;54.71;100859.06;5118004;28;20536;-65
2022/06/23 03:54:34;;;;;;;10.20;3.80;;;;;;;14.73;54.73;100847.19;5119264;28;20456;-65
2022/06/23 03:57:12;;;;;;;7.68;3.67;;;;;;;14.63;54.49;100843.03;5118086;28;20130;-65
2022/06/23 04:00:17;;;;;;;13.25;4.15;;;;;;;14.70;54.19;100852.94;5118257;28;20075;-65
2022/06/23 04:02:48;;;;;;;12.52;4.68;;;;;;;14.76;54.04;100854.09;5118877;28;20089;-65
2022/06/23 04:05:22;;;;;;;6.78;4.10;;;;;;;14.89;53.66;100853.44;5120222;28;20443;-65
2022/06/23 04:08:01;;;;;;;10.00;3.47;;;;;;;14.88;53.82;100851.78;5121728;28;20079;-65
2022/06/23 04:10:33;;;;;;;12.43;3.65;;;;;;;14.85;53.42;100854.84;5121246;28;20051;-65
2022/06/23 04:13:28;;;;;;;11.07;3.70;;;;;;;14.86;53.39;100851.13;5121788;28;20047;-65
2022/06/23 04:16:00;;;;;;;7.07;3.10;;;;;;;14.92;53.26;100864.72;5121322;28;20055;-65
2022/06/23 04:18:29;;;;;;;8.23;3.80;;;;;;;14.95;52.92;100863.53;5122035;28;20101;-65
2022/06/23 04:21:00;;;;;;;8.10;3.33;;;;;;;14.98;52.49;100873.94;5121788;28;20130;-65
2022/06/23 04:23:30;;;;;;;10.05;4.55;;;;;;;15.04;52.69;100873.19;5122248;28;20044;-65
2022/06/23 04:25:58;;;;;;;11.95;3.53;;;;;;;15.07;52.57;100874.69;5121631;28;20151;-65
2022/06/23 04:28:35;;;;;;;11.73;4.00;;;;;;;14.86;52.58;100881.66;5121952;28;20051;-65
2022/06/23 04:31:06;;;;;;;9.75;3.33;;;;;;;15.02;52.56;100883.38;5121607;28;20166;-65
2022/06/23 04:33:39;;;;;;;11.82;3.95;;;;;;;15.03;52.30;100893.13;5122143;28;20429;-65
2022/06/23 04:36:14;;;;;;;6.72;3.17;;;;;;;15.09;51.98;100884.31;5120986;28;20100;-65
2022/06/23 04:38:46;;;;;;;8.35;3.72;;;;;;;14.97;51.92;100883.06;5121428;28;20079;-65
2022/06/23 04:41:19;;;;;;;7.53;3.05;;;;;;;15.00;52.02;100882.69;5121062;28;20093;-65
2022/06/23 04:43:50;;;;;;;10.73;3.03;;;;;;;15.00;51.88;100883.53;5121436;28;20463;-65
2022/06/23 04:46:40;;;;;;;11.48;3.35;;;;;;;15.08;51.91;100879.91;5121889;28;20055;-65
2022/06/23 04:49:25;;;;;;;9.10;3.15;;;;;;;15.21;51.56;100890.06;5107369;28;20083;-65
2022/06/23 04:52:12;;;;;;;9.73;2.75;;;;;;;15.17;51.20;100886.91;5121280;28;20139;-65
2022/06/23 04:54:51;;;;;;;7.78;3.17;;;;;;;15.18;50.93;100885.88;5121734;28;20491;-65
2022/06/23 04:57:25;;;;;;;8.10;3.15;;;;;;;15.23;51.04;100894.25;5120746;28;20082;-65
2022/06/23 04:59:54;;;;;;;5.88;3.13;;;;;;;15.23;51.06;100888.84;5120698;28;20149;-66
2022/06/23 05:02:47;;;;;;;10.30;3.25;;;;;;;15.32;51.08;100896.88;5120408;28;20051;-65
2022/06/23 05:05:21;;;;;;;10.38;3.20;;;;;;;15.27;50.84;100888.50;5120211;28;20218;-66
2022/06/23 05:08:15;;;;;;;5.88;2.95;;;;;;;15.46;50.84;100882.50;5121112;28;20104;-66
2022/06/23 05:10:51;;;;;;;9.20;3.08;;;;;;;15.43;50.19;100889.13;5121066;28;20065;-66
2022/06/23 05:13:23;;;;;;;10.27;3.20;;;;;;;15.47;50.16;100898.53;5120870;28;20452;-65
2022/06/23 05:15:57;;;;;;;7.00;2.55;;;;;;;15.54;50.02;100895.94;5120219;28;20086;-66
2022/06/23 05:18:34;;;;;;;7.50;3.30;;;;;;;15.54;49.62;100900.50;5120055;28;20138;-66
2022/06/23 05:21:06;;;;;;;5.32;2.72;;;;;;;15.56;49.75;100896.56;5120310;28;20077;-65
2022/06/23 05:23:44;;;;;;;8.27;3.05;;;;;;;15.55;49.54;100903.00;5120080;28;20074;-65
2022/06/23 05:26:37;;;;;;;8.23;3.03;;;;;;;15.52;49.69;100906.06;5119891;28;20478;-65
2022/06/23 05:29:14;;;;;;;7.47;2.90;;;;;;;15.58;49.45;100904.50;5120143;28;20055;-66
2022/06/23 05:31:40;;;;;;;10.55;3.17;;;;;;;15.64;49.51;100895.63;5120724;28;20115;-66
2022/06/23 05:34:16;;;;;;;7.47;3.00;;;;;;;15.66;49.31;100913.34;5119997;28;20130;-66
2022/06/23 05:37:06;;;;;;;8.85;3.10;;;;;;;15.72;49.15;100909.06;5119820;28;20135;-66
2022/06/23 05:40:05;;;;;;;10.32;3.10;;;;;;;15.82;49.36;100909.59;5120068;28;20480;-66
2022/06/23 05:42:32;;;;;;;11.80;3.30;;;;;;;16.02;48.97;100919.81;5120026;28;20082;-66
2022/06/23 05:45:04;;;;;;;8.38;3.08;;;;;;;16.09;49.09;100910.75;5120957;28;20498;-66
2022/06/23 05:47:34;;;;;;;12.13;3.35;;;;;;;16.13;48.80;100916.63;5122156;28;20048;-65
2022/06/23 05:50:06;;;;;;;8.95;3.42;;;;;;;16.14;48.93;100913.69;5103942;28;20056;-65
2022/06/23 05:52:47;;;;;;;8.15;2.97;;;;;;;16.25;48.36;100914.22;5121962;28;20108;-65
2022/06/23 05:55:30;;;;;;;8.63;3.58;;;;;;;16.35;48.28;100914.75;5121040;28;20052;-65
2022/06/23 05:58:14;;;;;;;9.35;3.45;;;;;;;16.39;48.02;100918.72;5120039;28;20130;-66
2022/06/23 06:00:59;;;;;;;8.68;2.70;;;;;;;16.45;47.66;100922.53;5119971;28;20141;-66
2022/06/23 06:03:38;;;;;;;7.32;3.10;;;;;;;16.46;47.99;100922.34;5120333;28;20372;-66
2022/06/23 06:06:07;;;;;;;8.48;3.20;;;;;;;16.42;48.19;100921.06;5120284;28;20096;-66
2022/06/23 06:11:36;;;;;;;7.55;3.25;;;;;;;16.37;48.03;100928.94;5120406;28;20126;-66
2022/06/23 06:14:13;;;;;;;8.38;3.10;;;;;;;16.56;47.74;100927.47;5119792;28;20047;-66
2022/06/23 06:16:40;;;;;;;11.05;2.63;;;;;;;16.73;47.45;100930.75;5120130;28;20073;-66
2022/06/23 06:19:18;;;;;;;16.52;3.83;;;;;;;16.78;47.36;100936.41;5119876;28;20139;-66
2022/06/23 06:21:51;;;;;;;9.68;2.78;;;;;;;16.87;47.75;100937.94;5119993;28;20115;-66
2022/06/23 06:24:42;;;;;;;7.78;3.42;;;;;;;16.74;47.22;100935.13;5119530;28;20563;-66
2022/06/23 06:27:13;;;;;;;7.43;3.03;;;;;;;16.84;47.00;100943.75;5119085;28;20086;-66
2022/06/23 06:29:43;;;;;;;7.93;3.17;;;;;;;17.01;46.65;100928.88;5111494;28;20077;-66
2022/06/23 06:32:24;;;;;;;9.13;3.03;;;;;;;17.14;46.38;100936.25;5119481;28;20285;-65
2022/06/23 06:34:57;;;;;;;12.93;3.63;;;;;;;17.34;46.53;100939.13;5118951;28;20086;-65
2022/06/23 06:37:29;;;;;;;7.85;2.80;;;;;;;17.44;45.70;100939.63;5119224;28;20043;-65
2022/06/23 06:39:59;;;;;;;6.65;3.10;;;;;;;17.50;45.58;100938.78;5118701;28;20047;-66
2022/06/23 06:42:31;;;;;;;9.82;3.13;;;;;;;17.64;45.86;100936.97;5119961;28;20083;-65
2022/06/23 06:45:02;;;;;;;8.60;3.03;;;;;;;17.65;44.78;100940.53;5119038;28;20109;-65
2022/06/23 06:47:31;;;;;;;;;;;;;;;17.76;45.08;100950.81;5119173;28;20056;-65
2022/06/23 06:50:05;;;;;;;14.57;3.67;;;;;;;17.95;44.26;100944.63;5119556;28;19920;-65
2022/06/23 06:52:33;;;;;;;7.93;2.95;;;;;;;18.16;44.47;100943.66;5118425;28;20069;-66
2022/06/23 06:55:05;;;;;;;8.65;3.05;;;;;;;18.38;43.91;100943.53;5118392;28;20090;-67
2022/06/23 06:57:51;;;;;;;15.38;3.55;;;;;;;18.66;43.19;100946.91;5118931;28;20043;-66
2022/06/23 07:00:24;;;;;;;8.55;2.85;;;;;;;18.95;43.08;100934.78;5118824;28;20388;-67
2022/06/23 07:02:58;;;;;;;10.38;3.50;;;;;;;19.14;42.63;100933.09;5118725;28;20101;-66
2022/06/23 07:05:40;;;;;;;6.63;2.72;;;;;;;19.41;42.01;100935.75;5118081;28;20047;-66
2022/06/23 07:08:15;;;;;;;12.93;3.13;;;;;;;19.58;40.94;100939.66;5118083;28;20122;-67
2022/06/23 07:10:46;;;;;;;8.93;2.60;;;;;;;19.85;40.45;100934.97;5118749;28;20120;-66
2022/06/23 07:13:28;;;;;;;13.73;3.30;;;;;;;19.95;40.19;100938.06;5118172;28;20139;-66
2022/06/23 07:16:08;;;;;;;7.22;2.45;;;;;;;20.35;39.50;100946.03;5117998;28;20096;-66
2022/06/23 07:19:00;;;;;;;8.77;3.20;;;;;;;20.68;38.59;100945.81;5118973;28;20094;-66
2022/06/23 07:21:45;;;;;;;10.02;3.38;;;;;;;20.39;38.97;100958.16;5118621;28;20052;-67
2022/06/23 07:24:23;;;;;;;9.77;2.85;;;;;;;20.66;38.50;100947.06;5118361;28;20055;-66
2022/06/23 07:26:53;;;;;;;6.25;2.95;;;;;;;20.42;38.30;100949.56;5119305;28;20047;-66
2022/06/23 07:29:40;;;;;;;9.43;3.30;;;;;;;20.34;37.98;100941.63;5119379;28;20130;-66
2022/06/23 07:32:29;;;;;;;10.73;3.35;;;;;;;21.12;37.55;100951.34;5120004;28;20160;-66
2022/06/23 07:35:07;;;;;;;9.48;2.65;;;;;;;21.62;36.91;100951.22;5119406;28;20105;-67
2022/06/23 07:37:51;;;;;;;7.43;2.40;;;;;;;22.04;36.42;100956.81;5119784;28;20119;-66
2022/06/23 07:40:20;;;;;;;8.60;2.50;;;;;;;22.48;34.77;100957.47;5122447;28;20047;-66
2022/06/23 07:43:24;;;;;;;9.70;2.95;;;;;;;22.74;34.62;100951.59;5123663;28;20075;-66
2022/06/23 07:45:55;;;;;;;14.75;3.35;;;;;;;22.83;33.91;100962.19;5105873;28;20047;-67
2022/06/23 07:48:23;;;;;;;8.80;2.28;;;;;;;23.02;33.94;100955.53;5123657;28;20071;-68
2022/06/23 07:50:49;;;;;;;4.45;2.47;;;;;;;23.16;34.22;100945.22;5123582;28;20052;-67
2022/06/23 07:53:21;;;;;;;11.25;2.45;;;;;;;23.30;33.87;100949.38;5123198;28;20063;-66
2022/06/23 07:55:47;;;;;;;;;;;;;;;23.39;33.49;100955.28;5123212;28;20071;-66
2022/06/23 07:58:24;;;;;;;11.48;2.78;;;;;;;23.62;32.98;100949.78;5123238;28;19973;-66
2022/06/23 08:00:59;;;;;;;4.75;2.30;;;;;;;23.54;33.24;100946.56;5123005;28;20095;-65
2022/06/23 08:03:36;;;;;;;9.82;2.67;;;;;;;23.42;33.16;100947.44;5123750;28;20472;-66
2022/06/23 08:06:08;;;;;;;7.30;2.30;;;;;;;23.83;32.14;100945.59;5122694;28;20044;-66
2022/06/23 08:08:38;;;;;;;10.60;2.90;;;;;;;24.36;31.49;100949.88;5123874;28;20055;-66
2022/06/23 08:14:44;;;;;;;9.75;2.33;;;;;;;24.46;31.45;100941.03;5122276;28;20055;-67
2022/06/23 08:17:16;;;;;;;10.27;2.83;;;;;;;24.80;31.02;100939.13;5117797;28;20044;-66
2022/06/23 08:19:57;;;;;;;8.77;2.45;;;;;;;24.65;30.90;100947.97;5121667;28;20448;-66
2022/06/23 08:22:29;;;;;;;7.53;2.08;;;;;;;24.43;31.40;100949.75;5122084;28;20539;-66
2022/06/23 08:25:03;;;;;;;9.27;2.45;;;;;;;24.88;30.07;100948.84;5123776;27;20051;-66
2022/06/23 08:27:52;;;;;;;8.13;2.70;;;;;;;24.74;30.90;100950.28;5142974;27;20475;-67
2022/06/23 08:30:18;;;;;;;13.10;2.78;;;;;;;24.57;31.23;100942.03;5142557;27;20077;-66
2022/06/23 08:32:49;;;;;;;7.28;2.33;;;;;;;24.61;31.25;100945.94;5142083;27;20073;-66
2022/06/23 08:35:41;;;;;;;11.00;2.70;;;;;;;24.88;30.70;100937.88;5141896;27;20047;-66
2022/06/23 08:38:12;;;;;;;7.35;2.63;;;;;;;25.19;30.16;100954.84;5141715;27;20344;-67
2022/06/23 08:41:09;;;;;;;8.60;2.38;;;;;;;25.61;29.26;100949.69;5142205;27;20055;-65
2022/06/23 08:43:59;;;;;;;7.20;2.72;;;;;;;25.48;28.73;100947.28;5123303;27;20514;-66
2022/06/23 08:46:38;;;;;;;5.63;2.20;;;;;;;24.52;31.08;100937.31;5141260;27;20479;-66
2022/06/23 08:49:28;;;;;;;7.22;2.20;;;;;;;24.70;30.18;100941.72;5141573;27;20047;-65
2022/06/23 08:52:04;;;;;;;6.75;2.20;;;;;;;25.29;29.36;100939.34;5139874;27;20457;-66
2022/06/23 08:54:30;;;;;;;7.13;2.15;;;;;;;25.69;28.74;100945.69;5141711;27;20071;-66
2022/06/23 08:57:11;;;;;;;5.32;1.92;;;;;;;25.49;29.24;100940.72;5141483;27;20411;-66
2022/06/23 08:59:48;;;;;;;8.45;2.15;;;;;;;25.64;29.07;100934.59;5140844;27;20065;-65
2022/06/23 09:02:21;;;;;;;14.02;2.40;;;;;;;25.78;27.54;100936.69;5140127;27;20062;-64
2022/06/23 09:05:17;;;;;;;6.90;2.03;;;;;;;26.39;26.79;100928.31;5140709;27;20054;-66
2022/06/23 09:07:52;;;;;;;6.78;1.88;;;;;;;25.79;28.71;100929.28;5140230;27;20043;-66
2022/06/23 09:10:59;;;;;;;11.30;2.30;;;;;;;25.66;28.73;100921.47;5140528;27;20051;-66
2022/06/23 09:13:33;;;;;;;3.90;1.90;;;;;;;26.76;26.93;100927.56;5122587;27;20143;-66
2022/06/23 09:16:50;;;;;;;4.35;1.70;;;;;;;25.93;28.13;100915.97;5141342;27;20403;-65
2022/06/23 09:19:22;;;;;;;7.28;1.88;;;;;;;26.00;26.99;100917.44;5056580;28;20083;-66
2022/06/23 09:22:10;;;;;;;4.72;1.95;;;;;;;25.79;27.79;100913.66;5057521;28;20068;-65
2022/06/23 09:24:47;;;;;;;14.02;2.10;;;;;;;25.59;26.86;100914.22;5049563;28;20140;-66
2022/06/23 09:27:42;;;;;;;8.07;2.10;;;;;;;25.96;26.79;100913.56;5057295;28;20413;-66
2022/06/23 09:30:20;;;;;;;7.30;2.45;;;;;;;26.14;26.44;100909.63;5058004;28;20113;-66
2022/06/23 09:32:57;;;;;;;6.13;2.10;;;;;;;26.36;25.08;100908.75;5057565;28;20045;-65
2022/06/23 09:35:58;;;;;;;8.13;2.25;;;;;;;26.39;27.06;100914.56;5057203;28;20466;-66
2022/06/23 09:38:40;;;;;;;6.47;1.90;;;;;;;26.38;26.81;100910.16;5056997;28;20064;-65
2022/06/23 09:41:09;;;;;;;5.65;1.75;;;;;;;26.12;27.54;100913.72;5057121;28;20084;-65
2022/06/23 09:43:53;;;;;;;7.05;1.90;;;;;;;27.69;24.74;100905.75;5057915;28;20576;-66
2022/06/23 09:46:31;;;;;;;3.90;1.77;;;;;;;27.73;25.40;100901.38;5057607;28;20064;-66
2022/06/23 09:49:21;;;;;;;5.35;1.92;;;;;;;25.72;26.81;100896.53;5059651;28;20057;-65
2022/06/23 09:52:06;;;;;;;4.10;1.80;;;;;;;26.31;25.71;100893.88;5119953;28;20131;-65
2022/06/23 09:55:04;;;;;;;5.93;1.77;;;;;;;27.07;25.81;100894.69;5120132;28;20090;-66
2022/06/23 09:57:52;;;;;;;5.53;1.70;;;;;;;26.50;26.33;100886.03;5118908;28;20085;-65
2022/06/23 10:00:23;;;;;;;5.07;1.42;;;;;;;28.31;22.75;100889.34;5118917;28;20092;-65
2022/06/23 10:03:09;;;;;;;6.68;2.47;;;;;;;28.46;22.96;100888.56;5119454;28;20077;-65
2022/06/23 10:06:12;;;;;;;5.63;2.60;;;;;;;28.64;22.02;100885.25;5119225;28;20058;-65
2022/06/23 10:09:11;;;;;;;9.60;2.17;;;;;;;28.55;21.52;100886.91;5118516;28;20109;-65
2022/06/23 10:12:05;;;;;;;5.35;1.83;;;;;;;28.62;21.71;100884.69;5118707;28;20048;-65
2022/06/23 10:14:49;;;;;;;9.65;2.00;;;;;;;27.89;23.58;100885.72;5118642;28;20048;-65
2022/06/23 10:17:40;;;;;;;6.47;2.10;;;;;;;25.46;27.30;100880.78;5118646;28;20569;-65
2022/06/23 10:20:25;;;;;;;3.78;1.48;;;;;;;27.04;24.85;100885.06;5118909;28;20055;-65
2022/06/23 10:23:03;;;;;;;3.78;1.73;;;;;;;28.19;22.29;100871.16;5118585;28;20068;-65
2022/06/23 10:25:59;;;;;;;8.90;1.95;;;;;;;27.50;24.13;100871.53;5118445;28;20104;-65
2022/06/23 10:29:08;;;;;;;2.78;1.65;;;;;;;26.20;26.49;100874.75;5118005;28;20075;-65
2022/06/23 10:32:16;;;;;;;3.85;1.60;;;;;;;27.79;23.33;100882.06;5117999;28;20083;-66
2022/06/23 10:34:46;;;;;;;8.82;1.83;;;;;;;28.06;23.25;100876.38;5118973;28;20051;-65
2022/06/23 10:37:18;;;;;;;4.30;1.40;;;;;;;27.56;24.34;100873.22;5118054;28;20058;-65
2022/06/23 10:39:45;;;;;;;3.80;1.65;;;;;;;26.55;25.81;100872.34;5119106;28;20098;-65
2022/06/23 10:42:45;;;;;;;5.15;2.25;;;;;;;27.99;21.83;100875.81;5118654;28;20086;-66
2022/06/23 10:45:22;;;;;;;6.72;1.40;;;;;;;27.52;22.86;100866.56;5117662;28;20050;-65
2022/06/23 10:48:03;;;;;;;11.88;3.13;;;;;;;26.81;23.90;100875.28;5117847;28;20043;-65
2022/06/23 10:51:16;;;;;;;10.45;3.38;;;;;;;26.42;24.92;100874.69;5118466;28;20051;-66
2022/06/23 10:53:52;;;;;;;4.70;2.00;;;;;;;26.40;24.15;100869.44;5105485;28;20149;-66
2022/06/23 10:56:37;;;;;;;11.10;2.42;;;;;;;26.30;24.47;100875.69;5118364;28;20555;-65
2022/06/23 10:59:31;;;;;;;5.32;2.03;;;;;;;26.24;25.66;100874.00;5118047;28;20459;-65
2022/06/23 11:02:09;;;;;;;5.70;2.03;;;;;;;25.36;25.49;100870.50;5118806;28;20541;-65
2022/06/23 11:04:53;;;;;;;3.80;1.75;;;;;;;23.86;29.73;100859.34;5118979;28;20052;-65
2022/06/23 11:07:28;;;;;;;9.02;2.00;;;;;;;23.69;30.18;100859.25;5118772;28;20047;-66
2022/06/23 11:10:16;;;;;;;5.47;1.88;;;;;;;24.72;28.05;100859.19;5118060;28;20123;-65
2022/06/23 11:13:04;;;;;;;6.95;1.75;;;;;;;25.26;25.26;100845.66;5117865;28;20094;-66
2022/06/23 11:15:46;;;;;;;3.20;1.80;;;;;;;25.94;25.89;100848.94;5117825;28;20384;-66
2022/06/23 11:18:53;;;;;;;6.72;1.65;;;;;;;25.21;27.06;100845.63;5118602;28;20039;-66
2022/06/23 11:21:52;;;;;;;7.82;2.05;;;;;;;25.35;26.35;100846.88;5118040;28;20051;-66
2022/06/23 11:24:31;;;;;;;7.45;1.80;;;;;;;25.20;26.54;100846.69;5118165;28;20104;-66
2022/06/23 11:27:10;;;;;;;3.45;1.65;;;;;;;25.62;25.73;100838.72;5118608;28;20047;-67
2022/06/23 11:29:59;;;;;;;5.57;1.20;;;;;;;25.65;26.21;100838.22;5118697;28;20479;-65
2022/06/23 11:33:03;;;;;;;5.45;1.90;;;;;;;26.02;24.74;100838.28;5117909;28;20048;-65
2022/06/23 11:35:50;;;;;;;7.97;2.17;;;;;;;25.73;26.27;100843.22;5118250;28;20107;-66
2022/06/23 11:38:39;;;;;;;6.82;2.30;;;;;;;25.51;25.57;100835.00;5118634;28;20124;-67
2022/06/23 11:41:24;;;;;;;6.93;4.00;;;;;;;25.09;26.51;100830.06;5119087;28;20078;-66
2022/06/23 11:44:06;;;;;;;5.43;1.60;;;;;;;25.00;26.74;100826.13;5118719;28;20071;-66
2022/06/23 11:46:38;;;;;;;;;;;;;;;24.51;26.79;100825.09;5119301;28;20427;-66
2022/06/23 11:49:26;;;;;;;6.25;1.80;;;;;;;24.14;28.05;100820.94;5118882;28;20446;-67
2022/06/23 11:52:25;;;;;;;6.60;1.92;;;;;;;23.84;27.92;100828.59;5118867;28;20462;-66
2022/06/23 11:55:15;;;;;;;8.73;2.05;;;;;;;23.91;27.96;100826.53;5070443;28;20055;-66
2022/06/23 11:58:05;;;;;;;3.15;1.60;;;;;;;23.95;27.89;100824.97;5118710;28;20101;-66
2022/06/23 12:01:02;;;;;;;5.10;1.60;;;;;;;23.93;28.86;100816.19;5117931;28;20484;-66
2022/06/23 12:03:37;;;;;;;7.53;1.60;;;;;;;23.85;28.31;100817.41;5118142;28;20048;-67
2022/06/23 12:06:10;;;;;;;5.25;1.50;;;;;;;23.69;29.27;100812.69;5119249;28;20051;-66
2022/06/23 12:08:55;;;;;;;3.38;1.67;;;;;;;23.90;27.66;100813.94;5118359;28;20040;-65
2022/06/23 12:11:23;;;;;;;4.25;1.60;;;;;;;24.12;28.55;100808.53;5118450;28;20055;-65
2022/06/23 12:13:49;;;;;;;4.53;1.88;;;;;;;24.14;27.61;100809.13;5118503;28;20079;-65
2022/06/23 12:16:19;;;;;;;2.90;1.60;;;;;;;23.97;28.63;100809.13;5117918;28;20083;-65
2022/06/23 12:19:06;;;;;;;6.50;2.10;;;;;;;23.78;28.43;100800.31;5118407;28;20501;-65
2022/06/23 12:22:06;;;;;;;6.47;2.00;;;;;;;23.85;28.07;100800.97;5118543;28;20048;-66
2022/06/23 12:25:00;;;;;;;5.32;2.00;;;;;;;23.79;28.77;100798.41;5119661;28;20086;-66
2022/06/23 12:27:50;;;;;;;7.32;2.25;;;;;;;23.69;29.47;100788.03;5121688;28;20584;-66
2022/06/23 12:30:18;;;;;;;10.73;1.75;;;;;;;23.69;28.82;100797.09;5123130;28;20082;-66
2022/06/23 12:33:12;;;;;;;8.27;2.03;;;;;;;23.89;27.84;100782.13;5122088;28;20043;-66
2022/06/23 12:35:59;;;;;;;8.07;1.90;;;;;;;23.94;28.47;100793.16;5123067;28;20043;-66
2022/06/23 12:38:36;;;;;;;7.82;1.90;;;;;;;23.87;28.47;100790.59;5123076;28;20488;-66
2022/06/23 12:41:12;;;;;;;4.32;1.70;;;;;;;23.81;29.06;100777.88;5122370;28;20079;-66